ヨハネスブルグ の空港の天気 - METARとTAF

ヨハネスブルグ/O.R.タンボ国際空港 ( FAOR / JNB ) - 南アフリカ ヨハネスブルグ
飛行場実況気象(Metar)
観測時間05/26 11:00 SAST (05/26 09:00 UTC)
風向・風速南西 4m/s
視程10km以上
天気現象
なし
気温12℃
湿度44%
気圧1018hPa
METARFAOR 260900Z 23007KT 190V260 CAVOK 12/00 Q1018 NOSIG
過去の天気等 Google飛行場航空写真 Wunderground天気予報

過去48時間のMETAR

飛行場予報(TAF)
発表時間: 5/26 06:00 SAST (5/26 04:00 UTC)
予報対象時間: 26日8時 SAST ~ 27日14時 SAST
風向・風速南 8m/s
視程10km以上
なし
26日12時 SAST ~ 26日14時 SAST に徐々に
風向・風速西 6m/s
26日18時 SAST ~ 26日20時 SAST に徐々に
風向・風速南 9m/s
TAF FAOR 260400Z 2606/2712 19015KT CAVOK TX15/2612Z TN02/2705Z
BECMG 2610/2612 26012KT
BECMG 2616/2618 18017KT